Time;durP1;ratioP1;P1;durP2;ratioP2;P2;SDS_P1;SDS_P2;PMS_P1;PMS_P2;Temp;Humidity;BMP_temperature;BMP_pressure;BME280_temperature;BME280_humidity;BME280_pressure;Samples;Min_cycle;Max_cycle;Signal;HPM_P1;HPM_P2
2023/09/13 00:00:48;;;;;;;2.10;0.50;;;16.30;99.90;;;;;;4903529;29;20070;-60
2023/09/13 00:03:15;;;;;;;0.20;0.20;;;16.30;99.90;;;;;;4905910;29;20091;-60
2023/09/13 00:05:42;;;;;;;0.90;0.70;;;16.30;99.90;;;;;;4882618;29;20063;-61
2023/09/13 00:08:09;;;;;;;2.35;0.40;;;16.30;99.90;;;;;;4894406;29;20060;-59
2023/09/13 00:10:36;;;;;;;1.33;0.55;;;16.30;99.90;;;;;;4899366;29;20044;-59
2023/09/13 00:13:03;;;;;;;0.68;0.30;;;16.20;99.90;;;;;;4911151;29;20066;-59
2023/09/13 00:15:30;;;;;;;2.88;0.40;;;16.20;99.90;;;;;;4897900;29;20115;-59
2023/09/13 00:17:57;;;;;;;1.98;0.60;;;16.20;99.90;;;;;;4875608;29;20420;-59
2023/09/13 00:20:24;;;;;;;0.43;0.32;;;16.30;99.90;;;;;;4560077;29;10000071;-60
2023/09/13 00:22:51;;;;;;;5.38;0.93;;;16.30;99.90;;;;;;4912030;29;20464;-59
2023/09/13 00:25:17;;;;;;;3.28;0.75;;;16.30;99.90;;;;;;4905391;29;20072;-62
2023/09/13 00:27:44;;;;;;;1.13;0.50;;;16.30;99.90;;;;;;4911127;29;20048;-58
2023/09/13 00:30:11;;;;;;;1.27;0.80;;;16.30;99.90;;;;;;4895999;29;20060;-59
2023/09/13 00:32:38;;;;;;;1.38;1.17;;;16.30;99.90;;;;;;4912751;29;20393;-59
2023/09/13 00:35:05;;;;;;;3.97;0.50;;;16.30;99.90;;;;;;4909416;29;20048;-63
2023/09/13 00:37:32;;;;;;;0.63;0.50;;;16.30;99.90;;;;;;4913066;29;20059;-59
2023/09/13 00:39:59;;;;;;;1.05;0.43;;;16.30;99.90;;;;;;4908767;29;20061;-59
2023/09/13 00:42:28;;;;;;;4.82;0.70;;;16.30;99.90;;;;;;4913789;29;20495;-59
2023/09/13 00:44:54;;;;;;;0.40;0.40;;;16.30;99.90;;;;;;4895782;29;20040;-59
2023/09/13 00:47:21;;;;;;;0.70;0.50;;;16.30;99.90;;;;;;4904169;29;20104;-59
2023/09/13 00:49:48;;;;;;;0.57;0.40;;;16.30;99.90;;;;;;4907051;29;20520;-59
2023/09/13 00:52:15;;;;;;;6.18;0.80;;;16.40;99.90;;;;;;4896667;29;20059;-59
2023/09/13 00:54:41;;;;;;;1.05;0.60;;;16.40;99.90;;;;;;4896118;29;20360;-59
2023/09/13 00:57:08;;;;;;;1.23;0.60;;;16.40;99.90;;;;;;4893504;29;20044;-59
2023/09/13 00:59:35;;;;;;;1.63;0.80;;;16.40;99.90;;;;;;4897019;29;20111;-59
2023/09/13 01:02:02;;;;;;;1.00;0.50;;;16.40;99.90;;;;;;4908934;29;20116;-60
2023/09/13 01:04:29;;;;;;;2.53;0.52;;;16.40;99.90;;;;;;4901825;29;20049;-60
2023/09/13 01:06:56;;;;;;;2.53;0.80;;;16.40;99.90;;;;;;4891181;29;20052;-59
2023/09/13 01:09:23;;;;;;;3.55;1.52;;;16.40;99.90;;;;;;4896612;29;20074;-60
2023/09/13 01:11:50;;;;;;;1.65;0.82;;;16.40;99.90;;;;;;4911351;29;20084;-60
2023/09/13 01:14:18;;;;;;;3.55;0.60;;;16.40;99.90;;;;;;4880760;29;20071;-59
2023/09/13 01:17:06;;;;;;;2.42;0.93;;;16.40;99.90;;;;;;4909434;29;20048;-59
2023/09/13 01:19:44;;;;;;;1.27;0.70;;;16.40;99.90;;;;;;4895944;29;20049;-59
2023/09/13 01:22:35;;;;;;;0.77;0.60;;;16.30;99.90;;;;;;4905893;29;20059;-59
2023/09/13 01:25:20;;;;;;;1.85;0.80;;;16.40;99.90;;;;;;4895418;29;20119;-60
2023/09/13 01:28:27;;;;;;;1.55;0.82;;;16.30;99.90;;;;;;4900203;29;20496;-61
2023/09/13 01:30:54;;;;;;;3.90;0.90;;;16.40;99.90;;;;;;4860791;29;20108;-62
2023/09/13 01:33:22;;;;;;;2.55;0.93;;;16.40;99.90;;;;;;4893546;29;20135;-60
2023/09/13 01:35:49;;;;;;;4.53;1.10;;;16.40;99.90;;;;;;4911497;29;20126;-59
2023/09/13 01:38:16;;;;;;;3.22;0.80;;;16.30;99.90;;;;;;4900577;29;20397;-61
2023/09/13 01:40:44;;;;;;;1.60;1.08;;;16.40;99.90;;;;;;4911908;29;20052;-60
2023/09/13 01:43:11;;;;;;;2.38;0.85;;;16.40;99.90;;;;;;4906725;29;20052;-61
2023/09/13 01:45:38;;;;;;;1.58;0.90;;;16.40;99.90;;;;;;4877359;29;20053;-61
2023/09/13 01:48:05;;;;;;;2.88;0.93;;;16.40;99.90;;;;;;4874675;29;20048;-63
2023/09/13 01:50:32;;;;;;;4.20;1.35;;;16.40;99.90;;;;;;4895997;29;20048;-61
2023/09/13 01:53:03;;;;;;;5.88;1.45;;;16.40;99.90;;;;;;4887830;29;20056;-61
2023/09/13 01:55:34;;;;;;;5.97;1.48;;;16.40;99.90;;;;;;4891474;29;20059;-60
2023/09/13 01:58:01;;;;;;;7.70;2.45;;;16.40;99.90;;;;;;4901154;29;20567;-61
2023/09/13 02:00:28;;;;;;;4.30;1.42;;;16.40;99.90;;;;;;4910159;29;20059;-59
2023/09/13 02:02:54;;;;;;;3.47;1.48;;;16.30;99.90;;;;;;4906664;29;20108;-59
2023/09/13 02:05:21;;;;;;;4.88;1.40;;;16.30;99.90;;;;;;4905349;29;20079;-59
2023/09/13 02:07:48;;;;;;;4.53;1.30;;;16.30;99.90;;;;;;4910942;29;20158;-63
2023/09/13 02:10:15;;;;;;;4.75;1.58;;;16.30;99.90;;;;;;4902703;29;20041;-59
2023/09/13 02:12:42;;;;;;;7.80;1.88;;;16.30;99.90;;;;;;4911274;29;20048;-57
2023/09/13 02:15:09;;;;;;;4.15;1.52;;;16.30;99.90;;;;;;4901112;29;20091;-58
2023/09/13 02:17:36;;;;;;;7.22;1.77;;;16.30;99.90;;;;;;4910158;29;20550;-59
2023/09/13 02:20:04;;;;;;;3.40;1.30;;;16.20;99.90;;;;;;4560163;29;10000422;-58
2023/09/13 02:22:31;;;;;;;8.48;1.92;;;16.10;99.90;;;;;;4907503;29;20044;-58
2023/09/13 02:25:00;;;;;;;3.00;1.35;;;16.10;99.90;;;;;;4902168;29;20613;-60
2023/09/13 02:27:28;;;;;;;5.75;1.83;;;16.10;99.90;;;;;;4906375;29;20079;-59
2023/09/13 02:29:55;;;;;;;7.05;2.10;;;16.10;99.90;;;;;;4889938;29;20128;-60
2023/09/13 02:32:21;;;;;;;3.33;1.45;;;16.10;99.90;;;;;;4910831;29;20052;-59
2023/09/13 02:34:48;;;;;;;10.13;1.75;;;16.10;99.90;;;;;;4908255;29;20052;-59
2023/09/13 02:37:15;;;;;;;4.00;2.15;;;16.10;99.90;;;;;;4911380;29;20096;-59
2023/09/13 02:39:42;;;;;;;10.77;2.75;;;16.10;99.90;;;;;;4906953;29;20052;-60
2023/09/13 02:42:09;;;;;;;4.03;2.35;;;16.10;99.90;;;;;;4912156;29;20485;-59
2023/09/13 02:44:37;;;;;;;3.05;1.50;;;16.20;99.90;;;;;;4907041;29;20048;-59
2023/09/13 02:47:03;;;;;;;6.28;2.03;;;16.20;99.90;;;;;;4894182;29;20056;-59
2023/09/13 02:49:32;;;;;;;7.32;1.85;;;16.10;99.90;;;;;;4905975;29;20048;-59
2023/09/13 02:51:59;;;;;;;4.68;1.73;;;16.10;99.90;;;;;;4911629;29;20100;-59
2023/09/13 02:54:25;;;;;;;5.95;2.22;;;16.10;99.90;;;;;;4908534;29;20052;-59
2023/09/13 02:56:55;;;;;;;4.35;1.50;;;16.10;99.90;;;;;;4899779;29;20104;-59
2023/09/13 02:59:22;;;;;;;7.18;1.90;;;16.10;99.90;;;;;;4906766;29;20059;-59
2023/09/13 03:01:49;;;;;;;8.35;2.08;;;16.10;99.90;;;;;;4911213;29;20101;-59
2023/09/13 03:04:16;;;;;;;5.50;1.65;;;16.00;99.90;;;;;;4905549;29;20140;-59
2023/09/13 03:06:43;;;;;;;6.45;2.03;;;16.00;99.90;;;;;;4905093;29;20056;-60
2023/09/13 03:09:10;;;;;;;7.78;1.77;;;16.00;99.90;;;;;;4909313;29;20048;-60
2023/09/13 03:11:37;;;;;;;6.68;1.85;;;16.00;99.90;;;;;;4904584;29;20493;-59
2023/09/13 03:14:05;;;;;;;5.25;1.55;;;16.00;99.90;;;;;;4911784;29;20056;-59
2023/09/13 03:16:31;;;;;;;7.88;2.17;;;16.00;99.90;;;;;;4894873;29;20045;-58
2023/09/13 03:18:58;;;;;;;8.00;1.83;;;16.00;99.90;;;;;;4911362;29;20059;-59
2023/09/13 03:21:25;;;;;;;11.75;2.65;;;16.00;99.90;;;;;;4899937;29;20072;-58
2023/09/13 03:23:53;;;;;;;8.65;1.85;;;16.00;99.90;;;;;;4909133;29;20099;-59
2023/09/13 03:26:24;;;;;;;6.25;2.08;;;16.00;99.90;;;;;;4900893;29;20061;-58
2023/09/13 03:28:52;;;;;;;9.00;1.77;;;16.00;99.90;;;;;;4908967;29;20060;-59
2023/09/13 03:31:20;;;;;;;4.57;1.50;;;16.00;99.90;;;;;;4902884;29;20053;-58
2023/09/13 03:33:48;;;;;;;9.30;2.40;;;16.00;99.90;;;;;;4890213;29;20099;-59
2023/09/13 03:36:15;;;;;;;5.68;2.13;;;16.00;99.90;;;;;;4884214;29;20047;-59
2023/09/13 03:38:43;;;;;;;4.68;1.63;;;16.00;99.90;;;;;;4911588;29;20107;-59
2023/09/13 03:41:11;;;;;;;7.30;2.25;;;16.00;99.90;;;;;;4910173;29;20044;-59
2023/09/13 03:43:38;;;;;;;5.93;1.90;;;16.00;99.90;;;;;;4897798;29;20056;-59
2023/09/13 03:46:05;;;;;;;5.28;2.33;;;16.00;99.90;;;;;;4909418;29;20492;-59
2023/09/13 03:48:33;;;;;;;7.28;1.38;;;16.00;99.90;;;;;;4914522;29;20044;-59
2023/09/13 03:51:00;;;;;;;6.50;1.73;;;16.10;99.90;;;;;;4911625;29;20099;-57
2023/09/13 03:53:26;;;;;;;7.20;2.20;;;16.10;99.90;;;;;;4913635;29;20047;-59
2023/09/13 03:55:53;;;;;;;10.52;3.75;;;16.10;99.90;;;;;;4913107;29;20087;-59
2023/09/13 03:58:20;;;;;;;8.95;1.73;;;16.00;99.90;;;;;;4907933;29;20049;-59
2023/09/13 04:00:47;;;;;;;8.88;2.30;;;16.00;99.90;;;;;;4914359;29;20042;-61
2023/09/13 04:03:18;;;;;;;7.50;2.13;;;16.00;99.90;;;;;;4890235;29;20052;-59
2023/09/13 04:05:44;;;;;;;5.82;1.65;;;16.00;99.90;;;;;;4886602;29;20071;-58
2023/09/13 04:08:12;;;;;;;4.97;1.70;;;16.00;99.90;;;;;;4911397;29;20048;-59
2023/09/13 04:10:38;;;;;;;6.57;1.77;;;16.00;99.90;;;;;;4914045;29;20048;-59
2023/09/13 04:13:05;;;;;;;8.32;1.63;;;16.00;99.90;;;;;;4910045;29;20056;-59
2023/09/13 04:15:33;;;;;;;6.72;2.38;;;16.00;99.90;;;;;;4897180;29;20615;-58
2023/09/13 04:17:59;;;;;;;5.00;1.80;;;16.00;99.90;;;;;;4909110;29;20354;-58
2023/09/13 04:20:26;;;;;;;6.68;1.70;;;16.00;99.90;;;;;;4913822;29;20075;-58
2023/09/13 04:22:53;;;;;;;4.90;1.40;;;16.10;99.90;;;;;;4896660;29;20056;-59
2023/09/13 04:25:20;;;;;;;4.65;1.65;;;16.00;99.90;;;;;;4900186;29;20048;-58
2023/09/13 04:27:47;;;;;;;9.68;1.75;;;16.00;99.90;;;;;;4901981;29;20330;-59
2023/09/13 04:30:15;;;;;;;4.45;1.45;;;16.00;99.90;;;;;;4911163;29;20056;-59
2023/09/13 04:32:42;;;;;;;8.27;1.42;;;16.10;99.90;;;;;;4911859;29;20107;-59
2023/09/13 04:35:11;;;;;;;5.20;1.80;;;16.10;99.90;;;;;;4904120;29;20052;-59
2023/09/13 04:37:38;;;;;;;10.30;1.77;;;16.00;99.90;;;;;;4897258;29;20322;-59
2023/09/13 04:40:06;;;;;;;8.82;3.05;;;16.00;99.90;;;;;;4912890;29;20048;-59
2023/09/13 04:42:41;;;;;;;5.20;1.58;;;16.00;99.90;;;;;;4911970;29;20048;-59
2023/09/13 04:45:08;;;;;;;12.20;2.30;;;16.10;99.90;;;;;;4895545;29;20499;-60
2023/09/13 04:47:35;;;;;;;8.27;1.85;;;16.00;99.90;;;;;;4912066;29;20606;-59
2023/09/13 04:50:02;;;;;;;4.97;1.45;;;16.00;99.90;;;;;;4906307;29;20547;-59
2023/09/13 04:52:29;;;;;;;3.35;1.52;;;16.00;99.90;;;;;;4914268;29;20059;-59
2023/09/13 04:54:56;;;;;;;10.27;1.48;;;16.00;99.90;;;;;;4900946;29;20111;-59
2023/09/13 04:57:22;;;;;;;5.93;1.73;;;16.00;99.90;;;;;;4912821;29;20048;-58
2023/09/13 04:59:49;;;;;;;15.32;1.98;;;16.00;99.90;;;;;;4910720;29;20108;-58
2023/09/13 05:02:16;;;;;;;4.13;1.52;;;16.10;99.90;;;;;;4909555;29;20044;-59
2023/09/13 05:04:43;;;;;;;4.63;1.60;;;16.10;99.90;;;;;;4909155;29;20115;-59
2023/09/13 05:07:10;;;;;;;10.73;1.92;;;16.00;99.90;;;;;;4912882;29;20055;-59
2023/09/13 05:09:37;;;;;;;4.70;1.48;;;16.00;99.90;;;;;;4891963;29;20082;-59
2023/09/13 05:12:05;;;;;;;11.43;2.70;;;16.00;99.90;;;;;;4912552;29;20560;-58
2023/09/13 05:14:32;;;;;;;9.23;1.70;;;16.00;99.90;;;;;;4905998;29;20056;-58
2023/09/13 05:16:58;;;;;;;6.05;1.60;;;16.00;99.90;;;;;;4899098;29;20117;-59
2023/09/13 05:19:25;;;;;;;6.60;1.73;;;16.00;99.90;;;;;;4899473;29;20109;-57
2023/09/13 05:21:52;;;;;;;5.35;1.63;;;16.10;99.90;;;;;;4912934;29;20056;-58
2023/09/13 05:24:19;;;;;;;4.60;1.80;;;16.10;99.90;;;;;;4907547;29;20515;-59
2023/09/13 05:26:46;;;;;;;7.38;1.75;;;16.10;99.90;;;;;;4903375;29;20044;-58
2023/09/13 05:29:12;;;;;;;9.02;2.90;;;16.00;99.90;;;;;;4903941;29;20112;-59
2023/09/13 05:31:39;;;;;;;8.45;1.90;;;16.00;99.90;;;;;;4908550;29;20063;-54
2023/09/13 05:34:06;;;;;;;6.40;1.65;;;16.00;99.90;;;;;;4911001;29;20507;-59
2023/09/13 05:36:33;;;;;;;9.35;3.30;;;16.00;99.90;;;;;;4910332;29;20079;-59
2023/09/13 05:39:00;;;;;;;7.80;2.15;;;16.00;99.90;;;;;;4912041;29;20067;-59
2023/09/13 05:41:27;;;;;;;13.20;2.33;;;16.00;99.90;;;;;;4907953;29;20063;-59
2023/09/13 05:43:54;;;;;;;8.30;1.60;;;16.10;99.90;;;;;;4912184;29;20108;-59
2023/09/13 05:46:21;;;;;;;9.85;2.38;;;16.10;99.90;;;;;;4908118;29;20060;-58
2023/09/13 05:48:47;;;;;;;8.38;2.03;;;16.00;99.90;;;;;;4909199;29;20048;-59
2023/09/13 05:51:14;;;;;;;9.88;2.97;;;16.00;99.90;;;;;;4902606;29;20112;-59
2023/09/13 05:53:41;;;;;;;6.22;2.25;;;16.10;99.90;;;;;;4909840;29;20524;-59
2023/09/13 05:56:10;;;;;;;15.45;3.67;;;16.10;99.90;;;;;;4908533;29;20460;-59
2023/09/13 05:58:38;;;;;;;6.75;2.00;;;16.10;99.90;;;;;;4911430;29;20055;-59
2023/09/13 06:01:05;;;;;;;10.98;2.03;;;16.00;99.90;;;;;;4907163;29;20465;-59
2023/09/13 06:03:33;;;;;;;16.65;2.30;;;16.00;99.90;;;;;;4909022;29;20090;-59
2023/09/13 06:06:00;;;;;;;9.35;2.60;;;16.10;99.90;;;;;;4908543;29;20097;-59
2023/09/13 06:08:26;;;;;;;7.22;2.05;;;16.10;99.90;;;;;;4911573;29;20504;-59
2023/09/13 06:10:53;;;;;;;6.90;2.47;;;16.10;99.90;;;;;;4905154;29;20048;-60
2023/09/13 06:13:20;;;;;;;11.77;2.40;;;16.10;99.90;;;;;;4894700;29;20055;-59
2023/09/13 06:15:47;;;;;;;10.60;2.90;;;16.10;99.90;;;;;;4910842;29;20107;-59
2023/09/13 06:18:14;;;;;;;7.82;2.50;;;16.10;99.90;;;;;;4904974;29;20094;-59
2023/09/13 06:20:41;;;;;;;9.95;2.65;;;16.10;99.90;;;;;;4908961;29;20526;-58
2023/09/13 06:23:32;;;;;;;9.27;2.28;;;16.10;99.90;;;;;;4908685;29;20188;-59
2023/09/13 06:25:59;;;;;;;8.90;2.08;;;16.10;99.90;;;;;;4878277;29;20052;-59
2023/09/13 06:28:26;;;;;;;11.75;2.40;;;16.10;99.90;;;;;;4905529;29;20060;-59
2023/09/13 06:30:53;;;;;;;15.85;2.85;;;16.10;99.90;;;;;;4893084;29;20104;-57
2023/09/13 06:33:29;;;;;;;6.68;2.60;;;16.10;99.90;;;;;;4879913;29;20099;-58
2023/09/13 06:35:59;;;;;;;11.82;2.70;;;16.10;99.90;;;;;;4903264;29;20087;-56
2023/09/13 06:38:27;;;;;;;15.50;2.83;;;16.00;99.90;;;;;;4883006;29;20055;-57
2023/09/13 06:40:55;;;;;;;11.95;2.47;;;16.10;99.90;;;;;;4886619;29;20052;-58
2023/09/13 06:43:25;;;;;;;11.30;3.15;;;16.00;99.90;;;;;;4901541;29;20044;-58
2023/09/13 06:45:54;;;;;;;8.70;2.58;;;16.00;99.90;;;;;;4908068;29;20108;-57
2023/09/13 06:48:31;;;;;;;8.00;2.70;;;16.10;99.90;;;;;;4908007;29;20531;-57
2023/09/13 06:51:00;;;;;;;9.52;2.15;;;16.00;99.90;;;;;;4907956;29;20135;-57
2023/09/13 06:53:47;;;;;;;10.27;4.10;;;16.10;99.90;;;;;;4901117;29;20052;-57
2023/09/13 06:56:17;;;;;;;6.07;2.13;;;16.10;99.90;;;;;;4909191;29;20234;-57
2023/09/13 06:58:46;;;;;;;7.03;2.33;;;16.20;99.90;;;;;;4908704;29;20092;-57
2023/09/13 07:01:16;;;;;;;11.55;2.63;;;16.30;99.90;;;;;;4910142;29;20095;-58
2023/09/13 07:03:47;;;;;;;7.15;2.55;;;16.30;99.90;;;;;;4906848;29;20124;-57
2023/09/13 07:06:25;;;;;;;8.90;2.58;;;16.20;99.90;;;;;;4900097;29;20132;-59
2023/09/13 07:08:52;;;;;;;12.20;3.47;;;16.20;99.90;;;;;;4909280;29;20135;-61
2023/09/13 07:11:19;;;;;;;9.68;2.58;;;16.30;99.90;;;;;;4906304;29;20056;-57
2023/09/13 07:13:46;;;;;;;12.05;2.55;;;16.20;99.90;;;;;;4905752;29;20052;-57
2023/09/13 07:16:13;;;;;;;9.77;2.50;;;16.20;99.90;;;;;;4911284;29;20512;-59
2023/09/13 07:18:40;;;;;;;14.10;2.75;;;16.30;99.90;;;;;;4913214;29;20496;-59
2023/09/13 07:21:07;;;;;;;12.48;3.20;;;16.40;99.90;;;;;;4901102;29;20484;-57
2023/09/13 07:23:34;;;;;;;9.10;3.30;;;16.40;99.90;;;;;;4900491;29;20060;-58
2023/09/13 07:26:00;;;;;;;8.32;2.30;;;16.40;99.90;;;;;;4909218;29;20044;-57
2023/09/13 07:28:27;;;;;;;12.98;2.38;;;16.40;99.90;;;;;;4910448;29;20056;-57
2023/09/13 07:30:54;;;;;;;7.32;3.53;;;16.40;99.90;;;;;;4914093;29;20052;-59
2023/09/13 07:33:21;;;;;;;13.27;2.95;;;16.40;99.90;;;;;;4913122;29;20548;-58
2023/09/13 07:35:48;;;;;;;8.00;2.53;;;16.40;99.90;;;;;;4898915;29;20073;-59
2023/09/13 07:38:15;;;;;;;12.65;3.00;;;16.40;99.90;;;;;;4897707;29;20100;-58
2023/09/13 07:40:42;;;;;;;14.63;2.92;;;16.50;99.90;;;;;;4910393;29;20423;-58
2023/09/13 07:43:09;;;;;;;12.55;3.60;;;16.60;99.90;;;;;;4910784;29;20052;-56
2023/09/13 07:45:35;;;;;;;12.35;3.42;;;16.70;99.90;;;;;;4906143;29;20059;-59
2023/09/13 07:48:02;;;;;;;12.32;2.15;;;16.70;99.90;;;;;;4912956;29;20052;-56
2023/09/13 07:50:40;;;;;;;7.53;2.67;;;16.70;99.90;;;;;;4901848;29;20104;-59
2023/09/13 07:53:11;;;;;;;9.38;2.63;;;16.80;99.90;;;;;;4898761;29;20151;-57
2023/09/13 07:55:38;;;;;;;9.55;2.15;;;16.80;99.90;;;;;;4899699;29;20060;-60
2023/09/13 07:58:05;;;;;;;8.68;2.85;;;16.80;99.90;;;;;;4896282;29;20040;-57
2023/09/13 08:00:32;;;;;;;8.02;2.97;;;16.80;99.90;;;;;;4900376;29;20417;-56
2023/09/13 08:03:00;;;;;;;10.80;4.47;;;16.90;99.90;;;;;;4899038;29;20036;-56
2023/09/13 08:05:27;;;;;;;13.85;3.38;;;16.90;99.90;;;;;;4905328;29;20044;-58
2023/09/13 08:07:54;;;;;;;11.13;2.92;;;17.00;99.90;;;;;;4896283;29;20163;-57
2023/09/13 08:10:22;;;;;;;11.13;3.70;;;17.10;99.90;;;;;;4905250;29;20053;-57
2023/09/13 08:12:49;;;;;;;10.45;2.80;;;17.10;99.90;;;;;;4906718;29;20080;-57
2023/09/13 08:15:16;;;;;;;9.48;3.70;;;17.10;99.90;;;;;;4909276;29;20060;-62
2023/09/13 08:17:43;;;;;;;12.60;2.80;;;17.20;99.90;;;;;;4895436;29;20048;-56
2023/09/13 08:20:10;;;;;;;7.82;2.72;;;17.30;99.90;;;;;;4894513;29;20112;-57
2023/09/13 08:22:37;;;;;;;6.63;2.05;;;17.30;99.90;;;;;;4904752;29;20514;-55
2023/09/13 08:25:07;;;;;;;7.43;2.75;;;17.40;99.90;;;;;;4910118;29;20128;-55
2023/09/13 08:27:37;;;;;;;11.45;2.70;;;17.40;99.90;;;;;;4910213;29;20054;-57
2023/09/13 08:30:05;;;;;;;7.72;2.05;;;17.50;99.90;;;;;;4909535;29;20059;-58
2023/09/13 08:32:32;;;;;;;7.97;3.25;;;17.50;99.90;;;;;;4907734;29;20052;-57
2023/09/13 08:34:58;;;;;;;12.45;3.08;;;17.50;99.90;;;;;;4910178;29;20138;-57
2023/09/13 08:37:25;;;;;;;11.05;3.10;;;17.50;99.90;;;;;;4903688;29;20048;-57
2023/09/13 08:39:56;;;;;;;7.13;2.03;;;17.60;99.90;;;;;;4906641;29;20062;-56
2023/09/13 08:42:24;;;;;;;8.98;2.58;;;17.70;99.90;;;;;;4906201;29;20056;-56
2023/09/13 08:44:51;;;;;;;11.32;2.50;;;17.70;99.90;;;;;;4911711;29;20431;-56
2023/09/13 08:47:18;;;;;;;9.18;2.33;;;17.90;99.90;;;;;;4881923;29;20154;-57
2023/09/13 08:49:45;;;;;;;7.60;2.20;;;17.90;99.90;;;;;;4892027;29;20075;-60
2023/09/13 08:52:12;;;;;;;7.13;1.98;;;18.00;99.90;;;;;;4904848;29;20041;-56
2023/09/13 08:54:39;;;;;;;8.45;2.42;;;18.10;99.90;;;;;;4897426;29;20161;-55
2023/09/13 08:57:24;;;;;;;7.75;2.55;;;18.10;99.90;;;;;;4906811;29;20485;-56
2023/09/13 08:59:51;;;;;;;11.00;3.40;;;18.10;99.90;;;;;;4895931;29;20520;-57
2023/09/13 09:02:21;;;;;;;10.68;2.83;;;18.20;99.90;;;;;;4907861;29;20229;-57
2023/09/13 09:04:48;;;;;;;7.13;1.98;;;18.30;99.90;;;;;;4896410;29;20563;-58
2023/09/13 09:07:15;;;;;;;10.70;2.30;;;18.30;99.90;;;;;;4895286;29;20048;-57
2023/09/13 09:09:43;;;;;;;13.45;3.03;;;18.30;99.90;;;;;;4903950;29;20050;-57
2023/09/13 09:12:09;;;;;;;10.30;3.22;;;18.30;99.90;;;;;;4884121;29;20087;-57
2023/09/13 09:14:36;;;;;;;13.68;2.10;;;18.30;99.90;;;;;;4902947;29;20051;-57
2023/09/13 09:17:03;;;;;;;9.27;2.15;;;18.30;99.90;;;;;;4891992;29;20116;-57
2023/09/13 09:19:30;;;;;;;7.88;2.28;;;18.40;99.90;;;;;;4895071;29;20052;-58
2023/09/13 09:21:58;;;;;;;11.05;2.45;;;18.40;99.90;;;;;;4878206;29;20048;-57
2023/09/13 09:24:25;;;;;;;10.70;1.73;;;18.50;99.90;;;;;;4910474;29;20054;-56
2023/09/13 09:26:54;;;;;;;5.32;1.88;;;18.50;99.90;;;;;;4911398;29;20056;-58
2023/09/13 09:29:21;;;;;;;10.30;2.67;;;18.40;99.90;;;;;;4908789;29;20048;-58
2023/09/13 09:31:51;;;;;;;8.73;2.15;;;18.30;99.90;;;;;;4880184;29;20111;-57
2023/09/13 09:34:18;;;;;;;6.63;2.30;;;18.30;99.90;;;;;;4895602;29;20126;-58
2023/09/13 09:36:46;;;;;;;8.30;2.22;;;18.40;99.90;;;;;;4911226;29;20051;-57
2023/09/13 09:39:15;;;;;;;16.55;2.67;;;18.60;99.90;;;;;;4902915;29;20044;-55
2023/09/13 09:41:42;;;;;;;5.43;2.05;;;18.70;99.90;;;;;;4906140;29;20281;-57
2023/09/13 09:44:09;;;;;;;10.00;3.40;;;18.90;99.90;;;;;;4900988;29;20070;-57
2023/09/13 09:46:35;;;;;;;21.00;3.03;;;19.10;99.90;;;;;;4911486;29;20131;-57
2023/09/13 09:49:04;;;;;;;5.75;2.17;;;19.10;99.90;;;;;;4902796;29;20115;-57
2023/09/13 09:51:32;;;;;;;10.85;2.67;;;19.10;99.90;;;;;;4908237;29;20461;-58
2023/09/13 09:53:58;;;;;;;10.18;1.80;;;19.30;99.90;;;;;;4889701;29;20064;-58
2023/09/13 09:56:26;;;;;;;8.35;2.58;;;19.40;99.90;;;;;;4879238;29;20063;-58
2023/09/13 09:59:00;;;;;;;8.23;1.98;;;19.50;99.90;;;;;;5064728;28;21040;-57
2023/09/13 10:01:27;;;;;;;6.45;2.10;;;19.50;99.90;;;;;;5062610;28;20045;-59
2023/09/13 10:03:55;;;;;;;7.05;2.67;;;19.60;99.90;;;;;;5052369;28;20503;-57
2023/09/13 10:06:22;;;;;;;12.38;2.38;;;19.60;99.90;;;;;;5063043;28;20052;-57
2023/09/13 10:08:49;;;;;;;14.30;2.17;;;19.70;99.90;;;;;;5050530;28;20045;-58
2023/09/13 10:11:20;;;;;;;6.45;2.25;;;19.60;99.90;;;;;;5059086;28;20117;-59
2023/09/13 10:13:48;;;;;;;5.10;2.15;;;19.60;99.90;;;;;;5064214;28;20052;-59
2023/09/13 10:16:16;;;;;;;4.32;1.90;;;19.60;99.90;;;;;;5052626;28;20412;-57
2023/09/13 10:18:52;;;;;;;12.15;2.03;;;19.70;99.90;;;;;;5063686;28;20059;-54
2023/09/13 10:21:32;;;;;;;9.50;2.60;;;19.80;99.90;;;;;;5053994;28;20132;-56
2023/09/13 10:24:06;;;;;;;16.85;2.85;;;20.00;99.90;;;;;;5064103;28;20052;-54
2023/09/13 10:26:33;;;;;;;;;;;20.20;99.90;;;;;;5064101;28;20049;-57
2023/09/13 10:29:15;;;;;;;4.63;2.00;;;20.20;99.90;;;;;;5063520;28;19964;-57
2023/09/13 10:31:44;;;;;;;6.78;1.70;;;20.10;99.90;;;;;;5060471;28;20194;-55
2023/09/13 10:34:25;;;;;;;6.20;2.40;;;20.20;99.90;;;;;;5045221;28;20421;-58
2023/09/13 10:36:59;;;;;;;7.13;2.42;;;20.30;99.90;;;;;;5056732;28;20462;-58
2023/09/13 10:39:29;;;;;;;7.97;2.13;;;20.30;99.90;;;;;;5055014;28;20531;-57
2023/09/13 10:42:16;;;;;;;6.13;2.22;;;20.30;99.90;;;;;;5061258;28;20098;-59
2023/09/13 10:44:43;;;;;;;8.82;2.42;;;20.40;99.90;;;;;;5055183;28;20094;-58
2023/09/13 10:47:10;;;;;;;9.48;3.25;;;20.30;99.90;;;;;;5041634;28;20180;-57
2023/09/13 10:49:38;;;;;;;5.57;2.30;;;20.30;99.90;;;;;;5045032;28;20559;-59
2023/09/13 10:52:09;;;;;;;9.60;2.45;;;20.30;99.90;;;;;;5060664;28;20045;-58
2023/09/13 10:54:36;;;;;;;7.10;2.20;;;20.30;99.90;;;;;;5063069;28;20041;-58
2023/09/13 10:57:03;;;;;;;13.93;2.65;;;20.40;99.90;;;;;;5054580;28;20059;-58
2023/09/13 10:59:31;;;;;;;8.77;2.72;;;20.30;99.90;;;;;;5062189;28;20056;-57
2023/09/13 11:01:58;;;;;;;7.95;3.03;;;20.30;99.90;;;;;;5057090;28;20087;-58
2023/09/13 11:04:25;;;;;;;17.08;3.83;;;20.20;99.90;;;;;;5057475;28;20116;-58
2023/09/13 11:06:53;;;;;;;9.13;2.58;;;20.20;99.90;;;;;;5059211;28;20106;-57
2023/09/13 11:09:27;;;;;;;7.55;2.47;;;20.20;99.90;;;;;;5050767;28;20053;-56
2023/09/13 11:11:55;;;;;;;6.25;2.65;;;20.20;99.90;;;;;;5043056;28;20519;-57
2023/09/13 11:14:25;;;;;;;9.85;2.80;;;20.20;99.90;;;;;;5047319;28;20184;-58
2023/09/13 11:16:52;;;;;;;7.07;2.17;;;20.20;99.90;;;;;;5049394;28;20053;-58
2023/09/13 11:19:29;;;;;;;11.77;2.80;;;20.10;99.90;;;;;;5033331;28;20124;-58
2023/09/13 11:22:03;;;;;;;6.45;2.30;;;20.10;99.90;;;;;;5041935;28;20118;-58
2023/09/13 11:24:37;;;;;;;9.63;2.83;;;20.20;99.90;;;;;;5033501;28;20049;-57
2023/09/13 11:27:24;;;;;;;;;;;20.30;99.90;;;;;;5044797;28;20279;-57
2023/09/13 11:29:51;;;;;;;8.70;2.20;;;20.30;99.90;;;;;;5031280;28;19920;-57
2023/09/13 11:32:22;;;;;;;9.52;2.55;;;20.30;99.90;;;;;;5040256;28;20048;-60
2023/09/13 11:34:59;;;;;;;8.00;2.55;;;20.20;99.90;;;;;;5034235;28;20053;-58
2023/09/13 11:37:26;;;;;;;5.07;1.75;;;20.20;99.90;;;;;;5040713;28;20370;-58
2023/09/13 11:39:54;;;;;;;9.82;2.40;;;20.30;99.90;;;;;;5049905;28;20103;-57
2023/09/13 11:42:28;;;;;;;4.70;2.05;;;20.30;99.90;;;;;;5053582;28;20091;-56
2023/09/13 11:45:05;;;;;;;7.97;2.60;;;20.50;99.90;;;;;;5047726;28;20148;-56
2023/09/13 11:47:36;;;;;;;7.75;2.83;;;20.50;99.90;;;;;;5047166;28;20076;-57
2023/09/13 11:50:03;;;;;;;8.25;2.58;;;20.60;99.90;;;;;;5046864;28;20049;-58
2023/09/13 11:53:09;;;;;;;7.07;2.67;;;20.60;99.90;;;;;;5045223;28;20041;-57
2023/09/13 11:55:53;;;;;;;12.20;2.88;;;20.60;99.90;;;;;;5046093;28;20144;-56
2023/09/13 11:58:39;;;;;;;6.03;2.00;;;20.60;99.90;;;;;;5039857;28;20155;-58
2023/09/13 12:01:23;;;;;;;6.65;2.17;;;20.70;99.90;;;;;;5037317;28;20487;-59
2023/09/13 12:03:52;;;;;;;6.45;2.35;;;20.70;99.90;;;;;;5048900;28;20524;-57
2023/09/13 12:06:23;;;;;;;8.07;2.10;;;20.80;99.90;;;;;;5034067;28;20049;-58
2023/09/13 12:08:58;;;;;;;7.32;3.00;;;20.80;99.90;;;;;;5049205;28;20098;-58
2023/09/13 12:11:29;;;;;;;19.85;3.33;;;21.00;99.90;;;;;;5045407;28;20103;-56
2023/09/13 12:14:00;;;;;;;9.43;3.13;;;21.10;99.90;;;;;;5041051;28;20519;-57
2023/09/13 12:16:38;;;;;;;5.65;1.60;;;21.10;99.90;;;;;;5047744;28;20102;-56
2023/09/13 12:19:06;;;;;;;8.07;2.80;;;21.00;99.90;;;;;;5052204;28;20136;-57
2023/09/13 12:21:33;;;;;;;6.60;1.77;;;20.90;99.90;;;;;;5044996;28;20048;-57
2023/09/13 12:24:00;;;;;;;7.05;2.13;;;20.90;99.90;;;;;;5042539;28;20050;-58
2023/09/13 12:26:29;;;;;;;4.78;1.75;;;20.70;99.90;;;;;;5044363;28;20037;-57
2023/09/13 12:28:56;;;;;;;4.22;1.67;;;20.60;99.90;;;;;;5046523;28;20144;-57
2023/09/13 12:31:24;;;;;;;6.55;2.20;;;20.60;99.90;;;;;;5042275;28;20056;-57
2023/09/13 12:33:51;;;;;;;8.23;2.05;;;20.70;99.90;;;;;;5048156;28;20053;-57
2023/09/13 12:36:18;;;;;;;7.72;2.08;;;20.70;99.90;;;;;;5040817;28;20059;-56
2023/09/13 12:38:48;;;;;;;6.32;2.50;;;20.80;99.90;;;;;;5030983;28;20041;-58
2023/09/13 12:41:16;;;;;;;9.95;3.05;;;20.90;99.90;;;;;;5037400;28;20048;-55
2023/09/13 12:43:44;;;;;;;5.50;2.00;;;20.90;99.90;;;;;;5043386;28;20102;-57
2023/09/13 12:46:16;;;;;;;4.40;1.83;;;21.00;99.90;;;;;;5035628;28;20666;-58
2023/09/13 12:48:43;;;;;;;6.40;2.20;;;21.00;99.90;;;;;;5047960;28;20049;-58
2023/09/13 12:51:12;;;;;;;8.52;1.95;;;21.10;99.90;;;;;;5038325;28;20052;-60
2023/09/13 12:53:39;;;;;;;32.78;3.63;;;21.10;99.90;;;;;;5029254;28;20045;-56